Time;durP1;ratioP1;P1;durP2;ratioP2;P2;SDS_P1;SDS_P2;PMS_P1;PMS_P2;Temp;Humidity;BMP_temperature;BMP_pressure;BME280_temperature;BME280_humidity;BME280_pressure;Samples;Min_cycle;Max_cycle;Signal;HPM_P1;HPM_P2
2022/01/22 00:00:31;;;;;;;9.55;4.18;;;;;;;7.84;100.00;99056.72;5040267;28;20032;-59
2022/01/22 00:02:56;;;;;;;12.77;6.30;;;;;;;6.24;100.00;99047.06;5040701;28;20041;-60
2022/01/22 00:05:22;;;;;;;15.27;7.22;;;;;;;5.73;100.00;99049.91;5040310;28;20042;-59
2022/01/22 00:07:48;;;;;;;13.23;5.43;;;;;;;5.90;100.00;99040.34;5040760;28;20103;-61
2022/01/22 00:10:15;;;;;;;10.75;3.83;;;;;;;8.34;100.00;99049.09;5040062;28;20043;-58
2022/01/22 00:15:13;;;;;;;13.98;7.15;;;;;;;6.60;100.00;99020.03;5040587;28;20720;-59
2022/01/22 00:17:39;;;;;;;13.05;7.47;;;;;;;5.39;100.00;99030.22;5040562;28;20605;-60
2022/01/22 00:20:06;;;;;;;16.30;7.82;;;;;;;5.24;100.00;99025.09;5041036;28;20513;-60
2022/01/22 00:22:34;;;;;;;16.13;7.72;;;;;;;6.25;100.00;99028.94;5039309;28;20037;-59
2022/01/22 00:25:01;;;;;;;12.98;5.63;;;;;;;5.84;100.00;99024.81;5040217;28;20113;-60
2022/01/22 00:27:27;;;;;;;14.95;8.32;;;;;;;6.56;100.00;99029.56;5039308;28;20033;-59
2022/01/22 00:29:53;;;;;;;15.55;7.47;;;;;;;5.08;100.00;99021.69;5040909;28;20025;-60
2022/01/22 00:32:19;;;;;;;11.63;6.22;;;;;;;6.95;100.00;99022.28;5039532;28;20047;-59
2022/01/22 00:34:44;;;;;;;15.75;5.50;;;;;;;7.45;100.00;99026.94;5040516;28;20029;-58
2022/01/22 00:37:10;;;;;;;16.80;9.25;;;;;;;4.83;100.00;99021.75;5039444;28;20579;-61
2022/01/22 00:39:36;;;;;;;14.50;7.43;;;;;;;5.55;100.00;99031.03;5040535;28;20038;-59
2022/01/22 00:42:08;;;;;;;16.50;8.63;;;;;;;4.52;100.00;99031.25;5039591;28;20566;-59
2022/01/22 00:44:34;;;;;;;17.95;8.52;;;;;;;5.07;100.00;99032.88;5040498;28;20020;-60
2022/01/22 00:47:00;;;;;;;17.65;7.78;;;;;;;5.44;100.00;99025.03;5038767;28;20043;-58
2022/01/22 00:49:26;;;;;;;15.05;8.68;;;;;;;4.21;100.00;99030.38;5040402;28;20041;-59
2022/01/22 00:51:51;;;;;;;16.95;8.57;;;;;;;4.47;100.00;99026.91;5038969;28;20082;-58
2022/01/22 00:54:17;;;;;;;16.48;7.90;;;;;;;5.14;100.00;99029.41;5040545;28;20478;-58
2022/01/22 00:56:42;;;;;;;15.73;8.07;;;;;;;4.36;100.00;99016.59;5039599;28;20028;-58
2022/01/22 00:59:07;;;;;;;14.57;7.63;;;;;;;5.96;100.00;99021.34;5039704;28;20402;-59
2022/01/22 01:01:33;;;;;;;17.88;5.82;;;;;;;8.12;100.00;99025.16;5037802;28;20415;-58
2022/01/22 01:04:01;;;;;;;10.15;5.53;;;;;;;8.56;100.00;99030.59;5039617;28;20211;-59
2022/01/22 01:06:27;;;;;;;11.88;6.10;;;;;;;7.16;100.00;99015.13;5039005;28;20041;-59
2022/01/22 01:08:52;;;;;;;11.52;6.10;;;;;;;5.49;100.00;99012.91;5040000;28;20032;-59
2022/01/22 01:11:18;;;;;;;12.55;6.20;;;;;;;7.74;100.00;99034.38;5039125;28;20622;-60
2022/01/22 01:13:47;;;;;;;11.43;6.65;;;;;;;6.00;100.00;99027.38;5040311;28;20654;-59
2022/01/22 01:16:20;;;;;;;11.43;5.35;;;;;;;7.12;100.00;99035.06;5039298;28;20493;-60
2022/01/22 01:32:37;;;;;;;11.35;6.05;;;;;;;6.68;100.00;99007.84;5038890;28;20043;-61
2022/01/22 01:35:06;;;;;;;12.10;5.85;;;;;;;7.12;100.00;99024.69;5039276;28;20035;-59
2022/01/22 01:37:32;;;;;;;9.15;4.97;;;;;;;8.65;100.00;99026.09;5043323;28;20108;-60
2022/01/22 01:40:01;;;;;;;10.32;5.72;;;;;;;7.17;100.00;99018.59;5026129;28;20101;-58
2022/01/22 01:42:45;;;;;;;8.35;4.43;;;;;;;8.26;100.00;99025.81;5042657;28;20059;-61
2022/01/22 01:45:11;;;;;;;10.10;5.70;;;;;;;6.77;100.00;99011.22;5043209;28;20040;-61
2022/01/22 01:47:38;;;;;;;11.48;6.30;;;;;;;5.92;100.00;98994.59;5043016;28;20033;-59
2022/01/22 01:50:05;;;;;;;27.88;6.28;;;;;;;6.42;100.00;99004.63;5042727;28;20032;-59
2022/01/22 01:52:46;;;;;;;11.30;5.60;;;;;;;7.72;100.00;99016.19;5040854;28;20516;-61
2022/01/22 01:55:19;;;;;;;11.98;7.00;;;;;;;5.62;100.00;99005.94;5042852;28;20017;-58
2022/01/22 01:57:46;;;;;;;11.75;6.47;;;;;;;4.73;100.00;99007.09;5042979;28;20469;-59
2022/01/22 02:00:19;;;;;;;11.73;5.88;;;;;;;7.38;100.00;99010.56;5042725;28;20043;-60
2022/01/22 02:02:46;;;;;;;11.10;4.65;;;;;;;7.07;100.00;99013.50;5042708;28;20081;-61
2022/01/22 02:05:12;;;;;;;12.20;7.10;;;;;;;5.65;100.00;99015.44;5042820;28;20171;-62
2022/01/22 02:07:41;;;;;;;11.45;6.75;;;;;;;7.00;100.00;99024.81;5042945;28;20526;-59
2022/01/22 02:10:09;;;;;;;12.05;6.90;;;;;;;5.21;100.00;99005.25;5042173;28;20033;-59
2022/01/22 02:23:41;;;;;;;12.70;6.72;;;;;;;5.83;100.00;98996.38;5042453;28;20040;-58
2022/01/22 02:26:08;;;;;;;11.35;6.25;;;;;;;6.60;100.00;99001.88;5040868;28;20064;-59
2022/01/22 02:28:34;;;;;;;11.73;4.88;;;;;;;8.89;100.00;99008.34;5042226;28;20686;-59
2022/01/22 02:38:51;;;;;;;12.45;7.05;;;;;;;5.62;100.00;98999.91;5042108;28;20036;-60
2022/01/22 02:41:19;;;;;;;13.45;6.55;;;;;;;5.18;100.00;99005.28;5041914;28;20041;-59
2022/01/22 02:43:46;;;;;;;11.80;6.63;;;;;;;6.07;100.00;99008.34;5042408;28;20112;-61
2022/01/22 02:46:15;;;;;;;8.10;3.38;;;;;;;8.59;100.00;99018.41;5041412;28;20036;-58
2022/01/22 02:48:40;;;;;;;12.65;6.07;;;;;;;6.71;100.00;99002.63;5042117;28;20024;-59
2022/01/22 02:51:06;;;;;;;12.55;6.88;;;;;;;6.25;100.00;99002.13;5041623;28;20041;-60
2022/01/22 02:53:31;;;;;;;14.55;6.90;;;;;;;7.05;100.00;99006.63;5042366;28;20025;-60
2022/01/22 02:55:57;;;;;;;12.38;7.10;;;;;;;5.22;100.00;98990.63;5041667;28;20663;-58
2022/01/22 02:58:23;;;;;;;14.13;6.90;;;;;;;6.16;100.00;98992.72;5042166;28;20020;-59
2022/01/22 03:00:48;;;;;;;12.93;6.32;;;;;;;6.53;100.00;98992.44;5041396;28;20029;-61
2022/01/22 03:03:14;;;;;;;11.13;6.78;;;;;;;6.40;100.00;98990.81;5041216;28;20029;-60
2022/01/22 03:05:39;;;;;;;11.40;6.28;;;;;;;8.14;100.00;99009.56;5041569;28;20379;-58
2022/01/22 03:08:08;;;;;;;10.40;5.78;;;;;;;6.61;100.00;98989.75;5041793;28;20025;-59
2022/01/22 03:10:34;;;;;;;10.90;5.13;;;;;;;7.04;100.00;99003.19;5041500;28;20051;-59
2022/01/22 03:18:37;;;;;;;8.85;4.00;;;;;;;8.21;100.00;99013.78;5042122;28;20053;-59
2022/01/22 03:28:56;;;;;;;13.23;7.68;;;;;;;6.26;100.00;98989.19;5041282;28;20040;-61
2022/01/22 03:31:22;;;;;;;12.30;5.38;;;;;;;7.03;100.00;99011.81;5039607;28;20052;-58
2022/01/22 03:33:47;;;;;;;11.80;6.88;;;;;;;6.74;100.00;99002.59;5039744;28;20135;-62
2022/01/22 03:36:14;;;;;;;14.30;8.30;;;;;;;5.26;100.00;98989.72;5038926;28;20143;-58
2022/01/22 03:38:39;;;;;;;14.10;6.53;;;;;;;6.93;100.00;99003.28;5040200;28;20017;-59
2022/01/22 03:41:05;;;;;;;14.63;8.35;;;;;;;6.13;100.00;98997.91;5040506;28;20414;-58
2022/01/22 03:43:30;;;;;;;14.85;7.95;;;;;;;6.26;100.00;98990.91;5040912;28;20123;-59
2022/01/22 03:45:55;;;;;;;9.50;4.80;;;;;;;7.58;100.00;99002.53;5040513;28;20113;-61
2022/01/22 03:48:21;;;;;;;9.35;4.68;;;;;;;8.15;100.00;99009.53;5041114;28;20118;-59
2022/01/22 03:50:48;;;;;;;9.13;4.20;;;;;;;8.71;100.00;99008.66;5040228;28;20040;-58
2022/01/22 03:53:13;;;;;;;18.63;7.97;;;;;;;5.62;100.00;98989.56;5041152;28;20029;-58
2022/01/22 03:58:16;;;;;;;12.95;6.93;;;;;;;6.91;100.00;99009.34;5040556;28;20111;-59
2022/01/22 04:00:42;;;;;;;17.75;8.98;;;;;;;4.75;100.00;99007.94;5039813;28;20159;-58
2022/01/22 04:05:35;;;;;;;13.70;6.32;;;;;;;6.68;100.00;99007.84;5040261;28;20045;-60
2022/01/22 04:08:11;;;;;;;15.38;6.70;;;;;;;6.51;100.00;99017.50;5040301;28;20312;-61
2022/01/22 04:10:37;;;;;;;10.15;5.65;;;;;;;9.15;100.00;99015.66;5039820;28;20025;-59
2022/01/22 04:13:06;;;;;;;9.55;4.07;;;;;;;7.44;100.00;99015.66;5040316;28;20071;-59
2022/01/22 04:15:37;;;;;;;12.68;6.78;;;;;;;7.26;100.00;99010.69;5040254;28;20082;-62
2022/01/22 04:26:28;;;;;;;11.90;5.43;;;;;;;7.78;100.00;99007.47;5039916;28;20066;-61
2022/01/22 04:28:53;;;;;;;17.10;8.98;;;;;;;6.44;100.00;98992.50;5040416;28;20043;-60
2022/01/22 04:31:19;;;;;;;15.52;8.38;;;;;;;6.24;100.00;99001.28;5039566;28;20071;-59
2022/01/22 04:33:45;;;;;;;16.60;7.43;;;;;;;6.97;100.00;98998.91;5039016;28;20472;-62
2022/01/22 04:36:11;;;;;;;14.15;8.20;;;;;;;6.05;100.00;98984.19;5039910;28;20494;-58
2022/01/22 04:38:37;;;;;;;15.35;8.68;;;;;;;6.13;100.00;98993.59;5040282;28;20035;-59
2022/01/22 04:41:04;;;;;;;14.77;7.07;;;;;;;6.37;100.00;98992.53;5039534;28;20033;-58
2022/01/22 04:43:32;;;;;;;18.02;9.55;;;;;;;5.56;100.00;98990.47;5039904;28;20542;-59
2022/01/22 04:46:11;;;;;;;14.27;7.85;;;;;;;5.56;100.00;98990.47;5039686;28;20076;-59
2022/01/22 04:56:36;;;;;;;14.98;8.40;;;;;;;7.16;100.00;98993.53;5039672;28;20055;-61
2022/01/22 04:59:02;;;;;;;12.80;6.90;;;;;;;7.13;100.00;98990.09;5039444;28;20025;-60
2022/01/22 05:01:28;;;;;;;12.60;6.03;;;;;;;7.56;100.00;99003.44;5039183;28;20041;-58
2022/01/22 05:03:53;;;;;;;12.32;5.85;;;;;;;7.64;100.00;98996.41;5039646;28;20085;-60
2022/01/22 05:06:19;;;;;;;11.13;5.93;;;;;;;7.77;100.00;98997.09;5039299;28;20045;-60
2022/01/22 05:08:44;;;;;;;14.82;7.43;;;;;;;6.95;100.00;98985.13;5039934;28;20664;-60
2022/01/22 05:11:10;;;;;;;15.00;6.68;;;;;;;6.69;100.00;98990.53;5045454;28;20041;-59
2022/01/22 05:13:35;;;;;;;16.92;7.95;;;;;;;5.40;100.00;98990.53;5046386;28;20057;-58
2022/01/22 05:16:00;;;;;;;9.52;5.10;;;;;;;8.25;100.00;99005.03;5046183;28;20033;-62
2022/01/22 05:18:26;;;;;;;11.15;5.85;;;;;;;7.32;100.00;99005.47;5046047;28;20025;-59
2022/01/22 05:21:00;;;;;;;14.30;6.65;;;;;;;7.38;100.00;98999.34;5044561;28;20094;-60
2022/01/22 05:23:26;;;;;;;10.55;5.63;;;;;;;7.39;100.00;99007.09;5046501;28;20094;-60
2022/01/22 05:26:01;;;;;;;13.63;6.22;;;;;;;7.53;100.00;99004.31;5045439;28;20033;-61
2022/01/22 05:31:04;;;;;;;8.45;4.35;;;;;;;8.18;100.00;99009.50;5045102;28;20037;-58
2022/01/22 05:36:55;;;;;;;12.85;7.72;;;;;;;6.34;100.00;99009.84;5046362;28;20546;-59
2022/01/22 05:39:00;;;;;;;13.38;7.32;;;;;;;6.40;100.00;99011.56;5045976;28;20133;-59
2022/01/22 05:41:26;;;;;;;15.55;6.50;;;;;;;6.70;100.00;99015.59;5045507;28;20131;-58
2022/01/22 05:43:51;;;;;;;15.13;8.07;;;;;;;7.10;100.00;99008.28;5046467;28;20037;-59
2022/01/22 05:46:16;;;;;;;10.52;5.47;;;;;;;8.06;100.00;99023.50;5045690;28;20032;-60
2022/01/22 05:48:41;;;;;;;17.00;7.90;;;;;;;5.83;100.00;99017.94;5046065;28;20667;-61
2022/01/22 05:51:08;;;;;;;16.83;8.27;;;;;;;5.98;100.00;99020.47;5045295;28;20453;-58
2022/01/22 05:54:00;;;;;;;7.53;3.65;;;;;;;9.30;100.00;99030.16;5046167;28;20108;-60
2022/01/22 06:01:56;;;;;;;11.05;5.90;;;;;;;6.96;100.00;99041.28;5045458;28;20056;-59
2022/01/22 06:04:21;;;;;;;11.15;6.05;;;;;;;7.85;100.00;99036.81;5045937;28;20549;-61
2022/01/22 06:06:46;;;;;;;11.82;6.00;;;;;;;7.14;100.00;99043.69;5045441;28;20037;-58
2022/01/22 06:09:12;;;;;;;14.73;7.72;;;;;;;5.36;100.00;99034.53;5045839;28;20029;-60
2022/01/22 06:11:54;;;;;;;16.98;8.20;;;;;;;5.66;100.00;99038.75;5045454;28;20032;-62
2022/01/22 06:14:21;;;;;;;;;;;;;;;6.91;100.00;99040.47;5045126;28;20029;-58
2022/01/22 06:16:46;;;;;;;13.77;7.22;;;;;;;5.52;100.00;99041.38;5045572;28;20542;-59
2022/01/22 06:19:11;;;;;;;13.48;6.85;;;;;;;6.67;100.00;99031.19;5046110;28;20028;-59
2022/01/22 06:21:37;;;;;;;13.70;6.75;;;;;;;5.96;100.00;99045.50;5042468;28;20470;-59
2022/01/22 06:24:02;;;;;;;13.23;4.82;;;;;;;8.26;100.00;99054.41;5042406;28;20672;-59
2022/01/22 06:26:28;;;;;;;14.15;7.72;;;;;;;5.92;100.00;99045.53;5042025;28;20044;-59
2022/01/22 06:28:53;;;;;;;13.82;7.57;;;;;;;5.53;100.00;99043.13;5042329;28;20031;-59
2022/01/22 06:31:18;;;;;;;16.33;6.78;;;;;;;7.16;100.00;99050.63;5041778;28;20430;-61
2022/01/22 06:33:44;;;;;;;13.02;7.15;;;;;;;6.70;100.00;99055.34;5042879;28;20029;-60
2022/01/22 06:36:09;;;;;;;12.68;6.85;;;;;;;6.92;100.00;99053.44;5042041;28;20730;-59
2022/01/22 06:38:35;;;;;;;12.35;5.40;;;;;;;6.88;100.00;99045.69;5042411;28;20025;-59
2022/01/22 06:43:44;;;;;;;12.57;6.63;;;;;;;6.68;100.00;99051.91;5042612;28;20035;-59
2022/01/22 06:46:10;;;;;;;12.02;5.00;;;;;;;6.55;100.00;99052.91;5041839;28;20033;-61
2022/01/22 06:48:35;;;;;;;15.40;7.82;;;;;;;5.41;100.00;99054.34;5041760;28;20124;-58
2022/01/22 06:51:01;;;;;;;12.80;7.15;;;;;;;5.75;100.00;99063.69;5041722;28;20037;-58
2022/01/22 06:53:27;;;;;;;11.15;5.95;;;;;;;6.01;100.00;99067.94;5042142;28;20040;-58
2022/01/22 06:56:01;;;;;;;9.52;4.28;;;;;;;8.47;100.00;99078.41;5041707;28;20148;-60
2022/01/22 06:58:27;;;;;;;9.68;5.60;;;;;;;6.67;100.00;99081.31;5042152;28;20779;-59
2022/01/22 07:00:53;;;;;;;14.10;6.93;;;;;;;6.07;100.00;99075.69;5041247;28;20033;-59
2022/01/22 07:03:18;;;;;;;13.63;6.47;;;;;;;6.39;100.00;99082.38;5041804;28;20029;-60
2022/01/22 07:05:44;;;;;;;13.75;6.78;;;;;;;6.24;100.00;99085.94;5041656;28;20140;-60
2022/01/22 07:08:09;;;;;;;13.55;7.40;;;;;;;5.83;100.00;99089.59;5041402;28;20025;-59
2022/01/22 07:10:35;;;;;;;13.77;6.95;;;;;;;4.93;100.00;99091.53;5041110;28;20041;-59
2022/01/22 07:13:00;;;;;;;14.55;7.40;;;;;;;5.71;100.00;99088.75;5042061;28;20035;-59
2022/01/22 07:15:26;;;;;;;18.08;7.20;;;;;;;5.01;100.00;99087.19;5041342;28;20037;-61
2022/01/22 07:17:51;;;;;;;12.23;5.65;;;;;;;6.89;100.00;99099.28;5041743;28;20031;-60
2022/01/22 07:20:25;;;;;;;17.60;6.75;;;;;;;5.91;100.00;99101.59;5041329;28;20111;-58
2022/01/22 07:22:53;;;;;;;15.05;7.70;;;;;;;4.88;100.00;99109.63;5041382;28;20017;-58
2022/01/22 07:25:19;;;;;;;12.40;5.68;;;;;;;6.94;100.00;99102.69;5041188;28;20028;-58
2022/01/22 07:27:45;;;;;;;17.35;8.85;;;;;;;5.68;100.00;99108.59;5041208;28;20376;-60
2022/01/22 07:30:12;;;;;;;14.77;5.68;;;;;;;6.13;100.00;99104.13;5039561;28;20071;-58
2022/01/22 07:32:41;;;;;;;15.98;8.15;;;;;;;5.22;100.00;99100.13;5039898;28;20024;-60
2022/01/22 07:35:08;;;;;;;20.63;8.70;;;;;;;4.89;100.00;99105.31;5040246;28;20025;-58
2022/01/22 07:37:35;;;;;;;12.88;4.53;;;;;;;6.61;100.00;99115.06;5041169;28;20024;-59
2022/01/22 07:40:01;;;;;;;17.80;7.55;;;;;;;5.97;100.00;99108.53;5041232;28;20098;-59
2022/01/22 07:42:26;;;;;;;18.38;6.93;;;;;;;6.03;100.00;99120.56;5040484;28;20691;-58
2022/01/22 07:44:52;;;;;;;16.27;8.05;;;;;;;5.88;100.00;99116.28;5041056;28;20102;-59
2022/01/22 07:47:17;;;;;;;20.73;8.60;;;;;;;5.05;100.00;99117.38;5040261;28;20040;-61
2022/01/22 07:49:42;;;;;;;17.35;8.55;;;;;;;5.59;100.00;99127.63;5040498;28;20029;-58
2022/01/22 07:52:08;;;;;;;15.93;8.07;;;;;;;5.71;100.00;99129.31;5040180;28;20035;-59
2022/01/22 07:54:34;;;;;;;18.65;6.88;;;;;;;7.68;100.00;99127.91;5040981;28;20084;-58
2022/01/22 07:57:02;;;;;;;14.82;7.22;;;;;;;5.82;100.00;99124.09;5040184;28;20045;-59
2022/01/22 07:59:27;;;;;;;16.92;8.35;;;;;;;5.38;100.00;99121.63;5040646;28;20052;-58
2022/01/22 08:01:53;;;;;;;14.43;7.57;;;;;;;5.97;100.00;99132.72;5039491;28;20552;-60
2022/01/22 08:04:23;;;;;;;14.40;7.30;;;;;;;5.50;100.00;99125.94;5040931;28;20024;-58
2022/01/22 08:06:49;;;;;;;14.45;7.60;;;;;;;5.91;100.00;99126.66;5040137;28;20040;-61
2022/01/22 08:09:15;;;;;;;13.68;7.70;;;;;;;5.82;100.00;99122.38;5022666;28;20021;-58
2022/01/22 08:11:40;;;;;;;17.55;7.30;;;;;;;6.35;100.00;99126.44;5039601;28;20059;-59
2022/01/22 08:14:09;;;;;;;12.88;7.15;;;;;;;6.05;100.00;99124.06;5040781;28;20029;-61
2022/01/22 08:16:34;;;;;;;15.45;7.00;;;;;;;5.13;100.00;99136.34;5040361;28;20919;-60
2022/01/22 08:18:59;;;;;;;15.43;7.88;;;;;;;5.52;100.00;99144.91;5040522;28;20021;-59
2022/01/22 08:21:25;;;;;;;12.40;6.15;;;;;;;5.98;100.00;99143.91;5039588;28;20037;-61
2022/01/22 08:23:50;;;;;;;10.75;4.93;;;;;;;7.14;100.00;99147.47;5040752;28;20605;-60
2022/01/22 08:26:20;;;;;;;16.83;6.85;;;;;;;6.49;100.00;99149.72;5038266;28;20047;-59
2022/01/22 08:28:57;;;;;;;15.98;7.68;;;;;;;5.78;100.00;99154.31;5039230;28;20455;-59
2022/01/22 08:31:38;;;;;;;13.70;7.50;;;;;;;5.55;100.00;99155.25;5038447;28;20040;-61
2022/01/22 08:36:49;;;;;;;17.65;7.38;;;;;;;5.43;100.00;99168.22;5039847;28;20047;-59
2022/01/22 08:39:17;;;;;;;17.35;8.45;;;;;;;5.42;100.00;99169.06;5040038;28;20657;-60
2022/01/22 08:41:42;;;;;;;15.07;8.20;;;;;;;5.53;100.00;99166.44;5020939;28;20045;-60
2022/01/22 08:44:09;;;;;;;16.45;6.20;;;;;;;7.86;100.00;99179.66;5039593;28;20380;-59
2022/01/22 08:46:35;;;;;;;14.27;7.43;;;;;;;6.84;100.00;99184.06;5039469;28;20076;-60
2022/01/22 08:49:01;;;;;;;14.63;7.22;;;;;;;6.35;100.00;99175.69;5034537;28;20116;-59
2022/01/22 08:51:27;;;;;;;17.30;8.13;;;;;;;5.46;100.00;99160.44;5036526;28;20036;-61
2022/01/22 08:53:52;;;;;;;15.30;6.88;;;;;;;6.01;100.00;99175.00;5039958;28;20037;-60
2022/01/22 08:56:18;;;;;;;15.40;7.28;;;;;;;5.26;100.00;99172.56;5038960;28;20049;-59
2022/01/22 08:58:44;;;;;;;15.25;7.00;;;;;;;7.32;100.00;99184.53;5039376;28;20074;-61
2022/01/22 09:01:10;;;;;;;16.42;7.60;;;;;;;6.35;100.00;99169.66;5038810;28;20036;-60
2022/01/22 09:03:36;;;;;;;13.07;6.72;;;;;;;5.94;100.00;99168.94;5039278;28;20024;-58
2022/01/22 09:06:06;;;;;;;14.75;7.55;;;;;;;6.74;100.00;99184.09;5039136;28;20033;-61
2022/01/22 09:08:32;;;;;;;10.10;4.95;;;;;;;8.62;100.00;99192.63;5039559;28;20029;-59
2022/01/22 09:10:57;;;;;;;9.77;4.20;;;;;;;8.09;100.00;99182.00;5038775;28;20033;-61
2022/01/22 09:13:24;;;;;;;8.60;4.57;;;;;;;7.85;100.00;99177.94;5036183;28;20449;-61
2022/01/22 09:15:51;;;;;;;10.50;5.10;;;;;;;6.86;100.00;99183.19;5037956;28;20029;-63
2022/01/22 09:18:17;;;;;;;14.75;7.55;;;;;;;6.15;100.00;99198.25;5037989;28;20033;-61
2022/01/22 09:20:55;;;;;;;13.27;7.28;;;;;;;5.90;100.00;99193.13;5036372;28;20037;-59
2022/01/22 09:23:21;;;;;;;17.38;7.78;;;;;;;5.63;100.00;99207.00;5039062;28;20036;-61
2022/01/22 09:25:47;;;;;;;18.52;8.02;;;;;;;6.86;100.00;99213.44;5038819;28;20037;-62
2022/01/22 09:28:13;;;;;;;17.27;7.72;;;;;;;5.73;100.00;99208.69;5039437;28;20028;-59
2022/01/22 09:30:41;;;;;;;13.70;7.25;;;;;;;6.35;100.00;99201.59;5039103;28;20032;-59
2022/01/22 09:33:06;;;;;;;14.63;6.97;;;;;;;6.56;100.00;99210.13;5039022;28;20033;-60
2022/01/22 09:35:32;;;;;;;9.25;4.60;;;;;;;6.67;100.00;99210.97;5039393;28;20094;-61
2022/01/22 09:37:57;;;;;;;14.65;7.00;;;;;;;6.63;100.00;99211.81;5039382;28;20194;-59
2022/01/22 09:40:27;;;;;;;12.38;7.45;;;;;;;6.63;100.00;99216.16;5037954;28;20952;-60
2022/01/22 09:42:53;;;;;;;12.30;5.85;;;;;;;6.26;100.00;99222.38;5035979;28;20124;-60
2022/01/22 09:45:19;;;;;;;15.13;8.00;;;;;;;6.79;100.00;99222.13;5037648;28;20030;-60
2022/01/22 09:47:46;;;;;;;14.98;7.68;;;;;;;6.10;100.00;99213.81;5036554;28;20044;-61
2022/01/22 09:50:12;;;;;;;10.05;5.05;;;;;;;6.90;100.00;99231.56;5034911;28;20017;-61
2022/01/22 09:52:39;;;;;;;16.13;6.38;;;;;;;6.85;100.00;99229.88;5038000;28;20028;-61
2022/01/22 09:55:05;;;;;;;14.98;6.47;;;;;;;6.84;100.00;99238.53;5039075;28;20029;-59
2022/01/22 09:57:33;;;;;;;14.15;7.45;;;;;;;7.34;100.00;99242.50;5041442;28;20144;-60
2022/01/22 09:59:59;;;;;;;13.13;7.47;;;;;;;7.10;100.00;99239.22;5042925;28;20028;-60
2022/01/22 10:02:24;;;;;;;12.95;7.43;;;;;;;6.92;100.00;99236.72;5042016;28;20041;-61
2022/01/22 10:04:52;;;;;;;11.93;6.32;;;;;;;8.38;100.00;99250.09;5043307;28;20021;-61
2022/01/22 10:07:26;;;;;;;12.88;7.78;;;;;;;6.62;100.00;99245.56;5042302;28;20133;-59
2022/01/22 10:10:10;;;;;;;17.55;9.52;;;;;;;6.21;100.00;99251.78;5042996;28;20483;-59
2022/01/22 10:12:45;;;;;;;18.13;8.13;;;;;;;7.06;100.00;99247.88;5040670;28;20075;-62
2022/01/22 10:15:14;;;;;;;17.17;8.38;;;;;;;6.69;100.00;99249.81;5039030;28;20021;-61
2022/01/22 10:17:42;;;;;;;15.25;7.57;;;;;;;6.93;100.00;99251.44;5039840;28;20040;-60
2022/01/22 10:20:32;;;;;;;18.10;8.15;;;;;;;7.17;100.00;99249.53;5041385;28;20442;-59
2022/01/22 10:23:22;;;;;;;12.98;4.82;;;;;;;7.55;100.00;99261.34;5042319;28;20031;-59
2022/01/22 10:25:56;;;;;;;23.05;10.18;;;;;;;6.91;100.00;99248.84;5042261;28;20036;-61
2022/01/22 10:28:23;;;;;;;16.40;8.05;;;;;;;6.59;100.00;99241.25;5042234;28;20506;-59
2022/01/22 10:30:56;;;;;;;11.95;6.32;;;;;;;7.57;100.00;99249.22;5041982;28;20076;-60
2022/01/22 10:35:55;;;;;;;12.13;6.22;;;;;;;7.50;100.00;99233.69;5042712;28;20037;-61
2022/01/22 10:38:21;;;;;;;9.43;4.75;;;;;;;7.33;100.00;99240.75;5042245;28;20028;-59
2022/01/22 10:40:49;;;;;;;14.45;7.50;;;;;;;7.32;100.00;99239.06;5041410;28;20036;-61
2022/01/22 10:43:29;;;;;;;13.85;7.78;;;;;;;6.79;100.00;99232.50;5039978;28;20024;-60
2022/01/22 10:46:20;;;;;;;13.48;7.38;;;;;;;6.58;100.00;99234.34;5040273;28;20047;-61
2022/01/22 10:48:56;;;;;;;12.15;6.75;;;;;;;6.69;100.00;99232.56;5040003;28;20039;-58
2022/01/22 10:51:22;;;;;;;13.25;7.50;;;;;;;6.02;100.00;99227.66;5028527;28;20120;-63
2022/01/22 10:53:58;;;;;;;15.13;8.30;;;;;;;6.43;100.00;99237.84;5039083;28;20585;-59
2022/01/22 10:56:26;;;;;;;12.15;6.40;;;;;;;7.05;100.00;99230.59;5039531;28;20026;-59
2022/01/22 10:58:52;;;;;;;14.73;7.88;;;;;;;6.41;100.00;99229.22;5039824;28;20162;-61
2022/01/22 11:01:17;;;;;;;12.95;7.07;;;;;;;6.84;100.00;99235.94;5039516;28;20053;-58
2022/01/22 11:03:43;;;;;;;12.63;6.93;;;;;;;6.95;100.00;99235.00;5042002;28;20028;-60
2022/01/22 11:06:24;;;;;;;14.85;8.07;;;;;;;6.04;100.00;99231.09;5041627;28;21013;-60
2022/01/22 11:08:50;;;;;;;7.85;3.00;;;;;;;9.18;100.00;99243.84;5038798;28;20033;-59
2022/01/22 11:11:15;;;;;;;12.00;5.82;;;;;;;11.30;100.00;99244.06;5027151;28;20048;-58
2022/01/22 11:13:40;;;;;;;7.28;3.58;;;;;;;12.53;100.00;99226.00;5039752;28;20641;-59
2022/01/22 11:16:07;;;;;;;6.60;3.17;;;;;;;13.26;100.00;99236.88;5041285;28;20145;-61
2022/01/22 11:18:33;;;;;;;5.90;3.53;;;;;;;12.77;100.00;99213.06;5041364;28;20028;-60
2022/01/22 11:21:00;;;;;;;6.95;3.42;;;;;;;14.49;100.00;99214.25;5041220;28;20044;-60
2022/01/22 11:23:27;;;;;;;7.57;4.10;;;;;;;16.09;100.00;99204.31;5039005;28;20079;-59
2022/01/22 11:25:52;;;;;;;7.75;4.78;;;;;;;11.18;100.00;99213.88;5037728;28;20125;-61
2022/01/22 11:28:20;;;;;;;9.25;6.00;;;;;;;8.76;100.00;99214.97;5037408;28;20029;-58
2022/01/22 11:30:48;;;;;;;9.75;6.13;;;;;;;7.55;100.00;99214.63;5038340;28;20032;-60
2022/01/22 11:33:17;;;;;;;12.05;6.88;;;;;;;7.71;100.00;99205.81;5038809;28;20059;-58
2022/01/22 11:35:51;;;;;;;10.00;6.47;;;;;;;7.69;100.00;99208.41;5038707;28;20037;-60
2022/01/22 11:38:26;;;;;;;11.55;6.35;;;;;;;6.95;100.00;99223.75;5039490;28;20056;-58
2022/01/22 11:41:15;;;;;;;9.23;4.88;;;;;;;7.87;100.00;99222.97;5037230;28;20041;-60
2022/01/22 11:43:56;;;;;;;9.40;5.38;;;;;;;9.34;100.00;99228.84;5040029;28;20112;-58
2022/01/22 11:46:34;;;;;;;11.05;6.57;;;;;;;7.38;100.00;99207.84;5040339;28;20549;-60
2022/01/22 11:49:15;;;;;;;9.40;4.72;;;;;;;8.29;100.00;99223.34;5038177;28;20570;-58
2022/01/22 11:51:46;;;;;;;10.38;5.88;;;;;;;7.04;100.00;99218.50;5038475;28;20574;-58
2022/01/22 11:54:12;;;;;;;13.30;7.65;;;;;;;6.49;100.00;99216.25;5040902;28;20040;-59
2022/01/22 11:56:53;;;;;;;16.00;7.22;;;;;;;8.10;100.00;99232.22;5040700;28;20051;-58
2022/01/22 11:59:30;;;;;;;15.25;7.63;;;;;;;6.61;100.00;99225.69;5040838;28;20064;-60
2022/01/22 12:02:03;;;;;;;13.35;7.10;;;;;;;6.68;100.00;99229.97;5038838;28;20037;-58
2022/01/22 12:04:52;;;;;;;11.98;5.80;;;;;;;7.05;100.00;99240.97;5037130;28;20042;-59
2022/01/22 12:07:20;;;;;;;14.02;5.80;;;;;;;7.70;100.00;99240.44;5037004;28;20073;-56
2022/01/22 12:09:53;;;;;;;12.63;7.32;;;;;;;7.43;100.00;99237.22;5037219;28;20028;-62
2022/01/22 12:15:15;;;;;;;15.07;7.63;;;;;;;7.99;100.00;99245.34;5039549;28;20040;-60
2022/01/22 12:17:47;;;;;;;14.88;8.75;;;;;;;6.85;100.00;99242.84;5039769;28;20128;-60
2022/01/22 12:23:16;;;;;;;14.05;6.82;;;;;;;7.12;100.00;99247.84;5039995;28;20036;-60
2022/01/22 12:25:41;;;;;;;17.05;8.55;;;;;;;6.61;100.00;99249.88;5039924;28;20410;-60
2022/01/22 12:28:08;;;;;;;14.32;7.97;;;;;;;6.37;100.00;99250.84;5040094;28;20647;-60
2022/01/22 12:30:38;;;;;;;15.02;7.47;;;;;;;6.23;100.00;99253.50;5039324;28;20072;-61
2022/01/22 12:33:07;;;;;;;14.27;7.70;;;;;;;6.30;100.00;99250.00;5039790;28;20032;-62
2022/01/22 12:35:34;;;;;;;15.18;7.57;;;;;;;6.88;100.00;99248.00;5037931;28;20959;-61
2022/01/22 12:38:24;;;;;;;14.52;7.65;;;;;;;7.53;100.00;99244.06;5039048;28;20644;-57
2022/01/22 12:41:00;;;;;;;14.63;7.18;;;;;;;6.26;100.00;99247.44;5039501;28;20586;-61
2022/01/22 12:43:32;;;;;;;15.77;8.18;;;;;;;6.26;100.00;99248.28;5039787;28;20037;-59
2022/01/22 12:46:03;;;;;;;14.90;7.85;;;;;;;6.03;100.00;99244.91;5039688;28;20102;-63
2022/01/22 12:48:30;;;;;;;15.02;7.50;;;;;;;7.23;100.00;99249.50;5039621;28;20118;-61
2022/01/22 12:51:05;;;;;;;15.60;7.88;;;;;;;6.40;100.00;99244.81;5038987;28;20056;-62
2022/01/22 12:53:32;;;;;;;20.00;8.38;;;;;;;6.62;100.00;99246.44;5039055;28;20049;-58
2022/01/22 12:58:27;;;;;;;15.15;7.90;;;;;;;6.28;100.00;99241.38;5039150;28;20143;-58
2022/01/22 13:01:26;;;;;;;14.25;5.85;;;;;;;7.43;100.00;99239.81;5039064;28;20047;-56
2022/01/22 13:03:53;;;;;;;14.50;7.43;;;;;;;6.61;100.00;99230.88;5031154;28;20037;-60
2022/01/22 13:06:22;;;;;;;11.82;6.65;;;;;;;6.54;100.00;99232.63;5037727;28;20053;-59
2022/01/22 13:08:48;;;;;;;14.18;7.28;;;;;;;7.01;100.00;99236.69;5039081;28;20021;-60